createdAt,value
2023-03-08T00:01:55.038Z,100.00
2023-03-08T00:04:57.752Z,100.00
2023-03-08T00:08:00.494Z,100.00
2023-03-08T00:11:10.981Z,100.00
2023-03-08T00:14:13.645Z,100.00
2023-03-08T00:17:17.142Z,100.00
2023-03-08T00:20:19.779Z,100.00
2023-03-08T00:23:22.372Z,100.00
2023-03-08T00:26:24.950Z,100.00
2023-03-08T00:29:27.520Z,100.00
2023-03-08T00:32:33.106Z,100.00
2023-03-08T00:35:35.729Z,100.00
2023-03-08T00:38:38.296Z,100.00
2023-03-08T00:41:40.968Z,100.00
2023-03-08T00:44:43.504Z,100.00
2023-03-08T00:47:47.454Z,100.00
2023-03-08T00:50:50.092Z,100.00
2023-03-08T00:53:52.732Z,100.00
2023-03-08T00:56:55.537Z,99.20
2023-03-08T01:00:01.335Z,100.00
2023-03-08T01:03:04.627Z,100.00
2023-03-08T01:06:10.240Z,100.00
2023-03-08T01:09:13.003Z,99.39
2023-03-08T01:12:15.533Z,100.00
2023-03-08T01:15:18.179Z,100.00
2023-03-08T01:18:20.783Z,100.00
2023-03-08T01:21:24.045Z,100.00
2023-03-08T01:24:26.775Z,98.54
2023-03-08T01:27:32.004Z,97.60
2023-03-08T01:30:35.133Z,96.85
2023-03-08T01:33:40.095Z,100.00
2023-03-08T01:36:42.675Z,98.97
2023-03-08T01:39:45.366Z,96.43
2023-03-08T01:42:47.880Z,95.82
2023-03-08T01:46:06.543Z,95.78
2023-03-08T01:49:30.674Z,95.54
2023-03-08T01:52:40.192Z,98.00
2023-03-08T01:55:43.052Z,98.55
2023-03-08T01:58:47.521Z,99.57
2023-03-08T02:01:53.835Z,98.29
2023-03-08T02:04:57.989Z,96.80
2023-03-08T02:08:02.241Z,100.00
2023-03-08T02:11:10.267Z,100.00
2023-03-08T02:14:12.819Z,100.00
2023-03-08T02:17:19.423Z,100.00
2023-03-08T02:20:32.531Z,100.00
2023-03-08T02:23:35.136Z,100.00
2023-03-08T02:26:38.218Z,100.00
2023-03-08T02:29:41.405Z,100.00
2023-03-08T02:32:44.097Z,99.49
2023-03-08T02:35:47.310Z,97.76
2023-03-08T02:38:49.959Z,97.20
2023-03-08T02:41:52.487Z,97.16
2023-03-08T02:44:54.955Z,96.20
2023-03-08T02:47:57.731Z,97.23
2023-03-08T02:51:00.434Z,97.02
2023-03-08T02:54:03.471Z,96.38
2023-03-08T02:57:06.392Z,96.60
2023-03-08T03:00:11.698Z,95.41
2023-03-08T03:03:14.230Z,95.33
2023-03-08T03:06:18.811Z,94.78
2023-03-08T03:09:24.177Z,94.18
2023-03-08T03:12:27.088Z,94.01
2023-03-08T03:15:29.652Z,95.45
2023-03-08T03:18:34.569Z,94.48
2023-03-08T03:21:39.202Z,94.64
2023-03-08T03:24:41.778Z,94.46
2023-03-08T03:27:44.527Z,93.24
2023-03-08T03:30:48.339Z,94.99
2023-03-08T03:33:52.517Z,95.15
2023-03-08T03:36:58.070Z,96.92
2023-03-08T03:40:01.118Z,98.29
2023-03-08T03:43:05.222Z,96.98
2023-03-08T03:46:10.566Z,95.87
2023-03-08T03:49:13.857Z,98.36
2023-03-08T03:52:19.214Z,97.94
2023-03-08T03:55:30.652Z,97.72
2023-03-08T03:58:34.206Z,97.17
2023-03-08T04:01:37.229Z,95.22
2023-03-08T04:04:51.340Z,95.88
2023-03-08T04:07:57.829Z,95.48
2023-03-08T04:11:05.573Z,94.82
2023-03-08T04:14:09.234Z,95.90
2023-03-08T04:17:11.812Z,96.70
2023-03-08T04:20:19.516Z,95.87
2023-03-08T04:23:29.340Z,97.31
2023-03-08T04:26:32.397Z,95.36
2023-03-08T04:29:34.991Z,94.48
2023-03-08T04:32:38.146Z,94.34
2023-03-08T04:35:41.671Z,95.26
2023-03-08T04:38:46.079Z,95.60
2023-03-08T04:41:48.784Z,95.50
2023-03-08T04:45:11.729Z,97.16
2023-03-08T04:48:15.624Z,96.02
2023-03-08T04:51:19.605Z,95.84
2023-03-08T04:54:23.180Z,96.06
2023-03-08T04:57:32.809Z,98.99
2023-03-08T05:00:36.713Z,96.90
2023-03-08T05:03:40.343Z,98.07
2023-03-08T05:06:43.627Z,100.00
2023-03-08T05:09:51.142Z,100.00
2023-03-08T05:12:53.761Z,99.89
2023-03-08T05:15:57.709Z,100.00
2023-03-08T05:19:00.734Z,100.00
2023-03-08T05:22:09.090Z,100.00
2023-03-08T05:25:17.970Z,100.00
2023-03-08T05:28:21.626Z,100.00
2023-03-08T05:31:24.417Z,100.00
2023-03-08T05:34:29.974Z,100.00
2023-03-08T05:37:33.878Z,100.00
2023-03-08T05:40:39.230Z,100.00
2023-03-08T05:43:43.124Z,99.68
2023-03-08T05:46:50.354Z,98.25
2023-03-08T05:49:53.210Z,97.54
2023-03-08T05:52:57.817Z,97.05
2023-03-08T05:56:10.102Z,98.91
2023-03-08T05:59:18.357Z,96.35
2023-03-08T06:02:22.219Z,95.34
2023-03-08T06:05:28.676Z,94.88
2023-03-08T06:08:33.226Z,94.76
2023-03-08T06:11:37.734Z,94.71
2023-03-08T06:14:41.453Z,93.78
2023-03-08T06:17:44.861Z,93.16
2023-03-08T06:20:58.187Z,93.54
2023-03-08T06:24:01.171Z,92.95
2023-03-08T06:27:04.760Z,93.29
2023-03-08T06:30:08.054Z,90.19
2023-03-08T06:33:11.939Z,90.26
2023-03-08T06:36:17.712Z,84.00
2023-03-08T06:39:21.594Z,90.69
2023-03-08T06:42:39.806Z,86.65
2023-03-08T06:45:43.624Z,83.92
2023-03-08T06:48:47.590Z,81.25
2023-03-08T06:51:51.572Z,87.64
2023-03-08T06:54:54.558Z,89.14
2023-03-08T06:57:58.547Z,90.85
2023-03-08T07:01:01.390Z,90.61
2023-03-08T07:04:04.684Z,85.55
2023-03-08T07:07:08.109Z,85.39
2023-03-08T07:10:14.924Z,84.92
2023-03-08T07:13:17.759Z,74.84
2023-03-08T07:16:20.515Z,77.39
2023-03-08T07:19:23.062Z,75.02
2023-03-08T07:22:25.618Z,77.68
2023-03-08T07:25:28.794Z,75.76
2023-03-08T07:28:32.275Z,72.29
2023-03-08T07:31:36.546Z,72.66
2023-03-08T07:34:39.250Z,71.96
2023-03-08T07:37:44.981Z,72.41
2023-03-08T07:40:55.499Z,71.34
2023-03-08T07:43:58.363Z,71.61
2023-03-08T07:47:02.554Z,70.84
2023-03-08T07:50:08.165Z,70.50
2023-03-08T07:53:11.145Z,70.27
2023-03-08T07:56:13.811Z,69.27
2023-03-08T07:59:16.443Z,67.10
2023-03-08T08:02:19.069Z,67.20
2023-03-08T08:05:22.360Z,67.59
2023-03-08T08:08:25.159Z,66.95
2023-03-08T08:11:27.783Z,64.92
2023-03-08T08:14:30.469Z,65.84
2023-03-08T08:17:33.016Z,64.75
2023-03-08T08:20:35.748Z,64.33
2023-03-08T08:23:39.908Z,62.71
2023-03-08T08:26:42.682Z,62.84
2023-03-08T08:29:46.419Z,62.36
2023-03-08T08:32:49.288Z,61.71
2023-03-08T08:35:52.011Z,59.81
2023-03-08T08:38:54.713Z,60.30
2023-03-08T08:41:57.323Z,61.41
2023-03-08T08:44:59.980Z,59.52
2023-03-08T08:48:02.630Z,60.19
2023-03-08T08:51:06.757Z,61.06
2023-03-08T08:54:09.630Z,57.62
2023-03-08T08:57:12.562Z,55.63
2023-03-08T09:00:16.084Z,58.71
2023-03-08T09:03:18.696Z,58.99
2023-03-08T09:06:22.686Z,60.04
2023-03-08T09:09:27.076Z,58.71
2023-03-08T09:12:30.252Z,58.91
2023-03-08T09:15:32.986Z,56.79
2023-03-08T09:18:35.608Z,55.57
2023-03-08T09:21:38.565Z,58.80
2023-03-08T09:24:41.222Z,58.95
2023-03-08T09:27:43.730Z,57.79
2023-03-08T09:30:46.312Z,57.53
2023-03-08T09:33:52.302Z,57.39
2023-03-08T09:36:55.072Z,54.73
2023-03-08T09:39:58.398Z,53.70
2023-03-08T09:43:04.993Z,55.25
2023-03-08T09:46:13.356Z,51.78
2023-03-08T09:49:36.757Z,52.72
2023-03-08T09:53:16.044Z,55.26
2023-03-08T09:56:36.862Z,49.49
2023-03-08T09:59:49.164Z,52.60
2023-03-08T10:03:19.645Z,50.24
2023-03-08T10:06:24.827Z,50.90
2023-03-08T10:09:42.058Z,51.93
2023-03-08T10:13:20.129Z,49.77
2023-03-08T10:16:34.563Z,50.43
2023-03-08T10:19:46.779Z,50.71
2023-03-08T10:22:57.000Z,52.38
2023-03-08T10:26:00.691Z,51.96
2023-03-08T10:29:03.746Z,50.64
2023-03-08T10:32:07.482Z,50.50
2023-03-08T10:35:10.090Z,50.12
2023-03-08T10:38:17.188Z,48.92
2023-03-08T10:41:19.758Z,49.69
2023-03-08T10:44:37.152Z,48.50
2023-03-08T10:47:39.679Z,50.91
2023-03-08T10:50:42.284Z,49.70
2023-03-08T10:54:03.438Z,51.23
2023-03-08T10:57:06.122Z,51.27
2023-03-08T11:00:21.111Z,50.00
2023-03-08T11:03:25.467Z,51.63
2023-03-08T11:06:28.229Z,50.30
2023-03-08T11:09:33.042Z,50.65
2023-03-08T11:12:35.753Z,51.78
2023-03-08T11:15:40.401Z,49.63
2023-03-08T11:19:01.333Z,51.80
2023-03-08T11:22:22.641Z,51.63
2023-03-08T11:25:47.141Z,52.81
2023-03-08T11:29:36.812Z,51.61
2023-03-08T11:32:59.125Z,49.58
2023-03-08T11:36:17.059Z,50.40
2023-03-08T11:39:37.965Z,53.00
2023-03-08T11:42:51.939Z,54.55
2023-03-08T11:46:17.756Z,54.23
2023-03-08T11:49:29.460Z,55.69
2023-03-08T11:52:47.202Z,53.34
2023-03-08T11:56:05.164Z,51.83
2023-03-08T11:59:20.324Z,51.01
2023-03-08T12:02:31.378Z,50.99
2023-03-08T12:05:36.368Z,51.38
2023-03-08T12:08:54.518Z,49.43
2023-03-08T12:12:21.260Z,51.19
2023-03-08T12:15:51.422Z,50.24
2023-03-08T12:19:15.802Z,52.24
2023-03-08T12:22:39.283Z,50.70
2023-03-08T12:25:43.623Z,51.86
2023-03-08T12:28:54.286Z,53.13
2023-03-08T12:31:57.409Z,54.07
2023-03-08T12:35:21.912Z,53.09
2023-03-08T12:38:28.800Z,53.83
2023-03-08T12:41:32.665Z,53.67
2023-03-08T12:44:35.289Z,54.09
2023-03-08T12:47:38.059Z,53.20
2023-03-08T12:50:43.420Z,54.58
2023-03-08T12:53:51.965Z,54.03
2023-03-08T12:56:55.233Z,54.75
2023-03-08T13:00:06.947Z,53.22
2023-03-08T13:03:12.566Z,53.64
2023-03-08T13:06:57.009Z,54.32
2023-03-08T13:10:32.416Z,53.99
2023-03-08T13:13:50.388Z,53.27
2023-03-08T13:16:53.276Z,52.85
2023-03-08T13:19:58.244Z,53.92
2023-03-08T13:23:11.815Z,53.27
2023-03-08T13:26:37.667Z,53.38
2023-03-08T13:29:50.818Z,53.77
2023-03-08T13:32:54.088Z,54.52
2023-03-08T13:36:06.949Z,54.77
2023-03-08T13:39:30.522Z,53.67
2023-03-08T13:42:33.369Z,54.39
2023-03-08T13:45:36.584Z,53.75
2023-03-08T13:48:39.697Z,54.51
2023-03-08T13:51:43.680Z,54.28
2023-03-08T13:54:55.023Z,55.07
2023-03-08T13:57:57.772Z,54.92
2023-03-08T14:01:05.144Z,55.15
2023-03-08T14:04:14.066Z,54.96
2023-03-08T14:07:25.569Z,54.54
2023-03-08T14:10:47.393Z,55.10
2023-03-08T14:13:53.305Z,55.45
2023-03-08T14:16:56.158Z,55.62
2023-03-08T14:20:07.144Z,55.78
2023-03-08T14:23:23.634Z,55.00
2023-03-08T14:26:36.845Z,55.87
2023-03-08T14:29:39.599Z,56.14
2023-03-08T14:32:57.063Z,56.03
2023-03-08T14:36:00.489Z,56.10
2023-03-08T14:39:04.000Z,56.12
2023-03-08T14:42:16.171Z,56.10
2023-03-08T14:45:37.304Z,56.32
2023-03-08T14:48:40.174Z,56.56
2023-03-08T14:51:43.603Z,57.01
2023-03-08T14:54:46.418Z,56.11
2023-03-08T14:57:50.851Z,56.72
2023-03-08T15:00:55.653Z,56.58
2023-03-08T15:03:58.913Z,57.70
2023-03-08T15:07:01.734Z,57.43
2023-03-08T15:10:06.792Z,57.04
2023-03-08T15:13:16.158Z,57.62
2023-03-08T15:16:19.128Z,56.97
2023-03-08T15:19:22.180Z,58.10
2023-03-08T15:22:25.291Z,57.90
2023-03-08T15:25:34.801Z,57.37
2023-03-08T15:28:37.529Z,57.87
2023-03-08T15:31:40.412Z,58.31
2023-03-08T15:34:43.219Z,57.88
2023-03-08T15:37:46.839Z,58.57
2023-03-08T15:40:49.819Z,57.84
2023-03-08T15:43:54.886Z,58.46
2023-03-08T15:46:57.583Z,58.51
2023-03-08T15:50:02.127Z,58.33
2023-03-08T15:53:05.080Z,58.05
2023-03-08T15:56:08.133Z,58.29
2023-03-08T15:59:11.004Z,58.52
2023-03-08T16:02:16.043Z,58.51
2023-03-08T16:05:20.232Z,59.22
2023-03-08T16:08:26.293Z,58.85
2023-03-08T16:11:29.238Z,59.43
2023-03-08T16:14:31.876Z,59.57
2023-03-08T16:17:34.806Z,59.95
2023-03-08T16:20:40.175Z,59.82
2023-03-08T16:23:43.392Z,60.41
2023-03-08T16:26:46.181Z,60.71
2023-03-08T16:29:52.917Z,60.30
2023-03-08T16:32:55.688Z,61.07
2023-03-08T16:36:01.310Z,60.86
2023-03-08T16:39:07.955Z,60.96
2023-03-08T16:42:13.081Z,61.13
2023-03-08T16:45:16.947Z,61.26
2023-03-08T16:48:19.933Z,61.12
2023-03-08T16:51:25.031Z,61.47
2023-03-08T16:54:27.802Z,61.86
2023-03-08T16:57:30.822Z,62.16
2023-03-08T17:00:34.304Z,62.21
2023-03-08T17:03:38.561Z,62.52
2023-03-08T17:06:43.811Z,62.99
2023-03-08T17:09:46.758Z,63.18
2023-03-08T17:12:49.741Z,63.56
2023-03-08T17:15:52.575Z,63.72
2023-03-08T17:18:56.484Z,64.07
2023-03-08T17:21:59.493Z,64.03
2023-03-08T17:25:02.839Z,64.54
2023-03-08T17:28:06.364Z,64.63
2023-03-08T17:31:11.886Z,65.66
2023-03-08T17:34:15.199Z,66.17
2023-03-08T17:37:19.382Z,66.69
2023-03-08T17:40:22.943Z,68.13
2023-03-08T17:43:26.927Z,68.49
2023-03-08T17:46:30.852Z,70.71
2023-03-08T17:49:35.159Z,70.99
2023-03-08T17:52:39.200Z,70.36
2023-03-08T17:55:45.804Z,73.04
2023-03-08T17:58:50.273Z,72.27
2023-03-08T18:01:54.053Z,74.16
2023-03-08T18:04:56.978Z,75.50
2023-03-08T18:07:59.961Z,77.59
2023-03-08T18:11:03.226Z,77.24
2023-03-08T18:14:07.633Z,79.56
2023-03-08T18:17:11.333Z,80.03
2023-03-08T18:20:15.079Z,81.94
2023-03-08T18:23:18.306Z,82.29
2023-03-08T18:26:21.223Z,83.58
2023-03-08T18:29:24.701Z,83.58
2023-03-08T18:32:29.100Z,85.34
2023-03-08T18:35:32.566Z,84.41
2023-03-08T18:38:36.053Z,83.46
2023-03-08T18:41:39.923Z,83.23
2023-03-08T18:44:43.323Z,83.09
2023-03-08T18:47:50.127Z,80.20
2023-03-08T18:50:54.868Z,80.02
2023-03-08T18:53:59.062Z,80.18
2023-03-08T18:57:02.339Z,81.85
2023-03-08T19:00:09.870Z,79.51
2023-03-08T19:03:13.844Z,79.33
2023-03-08T19:06:17.308Z,79.54
2023-03-08T19:09:22.772Z,78.55
2023-03-08T19:12:26.018Z,77.59
2023-03-08T19:15:38.295Z,76.03
2023-03-08T19:18:41.737Z,76.89
2023-03-08T19:21:49.197Z,77.24
2023-03-08T19:24:52.833Z,77.30
2023-03-08T19:27:56.122Z,77.82
2023-03-08T19:30:59.082Z,79.03
2023-03-08T19:34:03.129Z,79.20
2023-03-08T19:37:07.037Z,78.55
2023-03-08T19:40:10.666Z,80.30
2023-03-08T19:43:13.450Z,79.28
2023-03-08T19:46:18.218Z,80.01
2023-03-08T19:49:23.420Z,80.79
2023-03-08T19:52:26.362Z,80.43
2023-03-08T19:55:29.406Z,79.38
2023-03-08T19:58:32.188Z,79.15
2023-03-08T20:01:35.406Z,79.23
2023-03-08T20:04:38.360Z,79.80
2023-03-08T20:07:41.321Z,80.57
2023-03-08T20:10:44.086Z,79.15
2023-03-08T20:13:47.365Z,79.07
2023-03-08T20:16:51.644Z,81.28
2023-03-08T20:19:55.299Z,81.56
2023-03-08T20:22:58.352Z,80.74
2023-03-08T20:26:01.620Z,82.12
2023-03-08T20:29:05.779Z,83.02
2023-03-08T20:32:08.689Z,82.39
2023-03-08T20:35:15.283Z,82.86
2023-03-08T20:38:18.115Z,82.26
2023-03-08T20:41:22.945Z,83.67
2023-03-08T20:44:26.063Z,83.78
2023-03-08T20:47:28.843Z,85.25
2023-03-08T20:50:31.610Z,85.90
2023-03-08T20:53:35.855Z,83.98
2023-03-08T20:56:38.903Z,82.99
2023-03-08T20:59:42.125Z,83.99
2023-03-08T21:02:45.760Z,83.54
2023-03-08T21:05:48.857Z,85.28
2023-03-08T21:08:51.811Z,84.09
2023-03-08T21:11:54.348Z,85.20
2023-03-08T21:14:59.915Z,84.44
2023-03-08T21:18:03.216Z,84.79
2023-03-08T21:21:06.305Z,86.12
2023-03-08T21:24:15.062Z,85.43
2023-03-08T21:27:18.228Z,85.85
2023-03-08T21:30:21.860Z,86.99
2023-03-08T21:33:24.451Z,86.71
2023-03-08T21:36:27.216Z,87.43
2023-03-08T21:39:30.294Z,88.70
2023-03-08T21:42:33.835Z,86.07
2023-03-08T21:45:41.794Z,88.22
2023-03-08T21:48:44.825Z,84.81
2023-03-08T21:51:48.160Z,84.81
2023-03-08T21:54:50.974Z,86.90
2023-03-08T21:57:53.721Z,85.70
2023-03-08T22:00:56.540Z,86.19
2023-03-08T22:04:00.901Z,86.66
2023-03-08T22:07:03.797Z,87.75
2023-03-08T22:10:07.435Z,87.19
2023-03-08T22:13:10.138Z,92.50
2023-03-08T22:16:12.882Z,89.97
2023-03-08T22:19:15.595Z,89.61
2023-03-08T22:22:18.821Z,87.26
2023-03-08T22:25:21.591Z,88.66
2023-03-08T22:28:24.334Z,89.34
2023-03-08T22:31:28.727Z,87.34
2023-03-08T22:34:31.843Z,87.38
2023-03-08T22:37:34.879Z,89.17
2023-03-08T22:40:41.071Z,88.87
2023-03-08T22:43:44.769Z,88.49
2023-03-08T22:46:48.301Z,88.56
2023-03-08T22:49:51.545Z,91.56
2023-03-08T22:52:54.464Z,92.70
2023-03-08T22:55:57.230Z,91.36
2023-03-08T22:59:01.367Z,90.12
2023-03-08T23:02:06.157Z,92.41
2023-03-08T23:05:12.474Z,91.20
2023-03-08T23:08:15.064Z,91.09
2023-03-08T23:11:17.978Z,91.88
2023-03-08T23:14:20.623Z,90.54
2023-03-08T23:17:23.189Z,90.38
2023-03-08T23:20:26.032Z,92.92
2023-03-08T23:23:28.601Z,96.42
2023-03-08T23:26:32.919Z,95.64
2023-03-08T23:29:36.267Z,97.47
2023-03-08T23:32:38.877Z,99.45
2023-03-08T23:35:41.690Z,98.88
2023-03-08T23:38:44.625Z,97.45
2023-03-08T23:41:47.150Z,94.49
2023-03-08T23:44:49.776Z,94.45
2023-03-08T23:47:52.297Z,92.38
2023-03-08T23:50:54.856Z,93.78
2023-03-08T23:53:59.836Z,91.75
2023-03-08T23:57:02.410Z,91.74
